createdAt,value
2018-03-06T00:04:30.658Z,11.63
2018-03-06T00:09:35.120Z,11.20
2018-03-06T00:14:39.541Z,11.90
2018-03-06T00:19:43.981Z,11.43
2018-03-06T00:24:48.224Z,12.17
2018-03-06T00:29:51.367Z,12.40
2018-03-06T00:34:54.575Z,13.60
2018-03-06T00:39:57.768Z,13.70
2018-03-06T00:45:00.919Z,12.23
2018-03-06T00:50:04.790Z,12.83
2018-03-06T00:55:07.906Z,13.75
2018-03-06T01:00:11.068Z,12.93
2018-03-06T01:05:14.229Z,12.73
2018-03-06T01:10:18.521Z,13.90
2018-03-06T01:15:22.364Z,14.43
2018-03-06T01:20:25.468Z,14.00
2018-03-06T01:25:28.496Z,15.60
2018-03-06T01:30:32.327Z,16.23
2018-03-06T01:35:35.403Z,15.70
2018-03-06T01:40:38.466Z,16.20
2018-03-06T01:45:41.535Z,15.20
2018-03-06T01:50:44.607Z,16.80
2018-03-06T01:55:48.457Z,17.10
2018-03-06T02:00:51.914Z,16.97
2018-03-06T02:05:55.003Z,16.73
2018-03-06T02:10:59.455Z,16.90
2018-03-06T02:16:02.535Z,17.53
2018-03-06T02:21:06.372Z,17.57
2018-03-06T02:26:09.464Z,17.63
2018-03-06T02:31:13.324Z,17.40
2018-03-06T02:36:16.405Z,18.30
2018-03-06T02:41:19.890Z,19.30
2018-03-06T02:46:23.727Z,17.80
2018-03-06T02:51:27.200Z,18.60
2018-03-06T02:56:30.280Z,18.47
2018-03-06T03:01:33.365Z,19.10
2018-03-06T03:06:37.803Z,19.40
2018-03-06T03:11:40.905Z,19.47
2018-03-06T03:16:44.371Z,19.57
2018-03-06T03:21:48.584Z,19.10
2018-03-06T03:26:51.667Z,19.63
2018-03-06T03:31:55.900Z,19.70
2018-03-06T03:37:00.339Z,18.90
2018-03-06T03:42:05.143Z,18.17
2018-03-06T03:47:08.206Z,17.93
2018-03-06T03:52:11.688Z,17.10
2018-03-06T03:57:14.848Z,19.43
2018-03-06T04:02:19.613Z,18.47
2018-03-06T04:07:22.771Z,17.42
2018-03-06T04:12:26.254Z,17.60
2018-03-06T04:17:29.359Z,19.40
2018-03-06T04:22:33.208Z,18.80
2018-03-06T04:27:37.664Z,19.50
2018-03-06T04:32:41.908Z,20.70
2018-03-06T04:37:45.392Z,20.70
2018-03-06T04:42:50.576Z,19.30
2018-03-06T04:47:54.822Z,19.83
2018-03-06T04:52:59.413Z,21.80
2018-03-06T04:58:03.281Z,20.93
2018-03-06T05:03:07.742Z,20.87
2018-03-06T05:08:11.596Z,21.40
2018-03-06T05:13:14.964Z,20.57
2018-03-06T05:18:18.454Z,19.37
2018-03-06T05:23:21.560Z,20.77
2018-03-06T05:28:25.781Z,22.73
2018-03-06T05:33:29.662Z,22.00
2018-03-06T05:38:32.792Z,20.07
2018-03-06T05:43:36.666Z,21.58
2018-03-06T05:48:40.901Z,23.40
2018-03-06T05:53:45.120Z,22.97
2018-03-06T05:58:49.551Z,21.77
2018-03-06T06:03:54.028Z,23.48
2018-03-06T06:08:58.470Z,23.13
2018-03-06T06:14:03.738Z,24.43
2018-03-06T06:19:08.331Z,24.93
2018-03-06T06:24:12.572Z,24.93
2018-03-06T06:29:15.681Z,23.13
2018-03-06T06:34:20.123Z,18.90
2018-03-06T06:39:24.717Z,24.50
2018-03-06T06:44:28.564Z,24.00
2018-03-06T06:49:33.655Z,25.30
2018-03-06T06:54:37.884Z,26.05
2018-03-06T06:59:43.259Z,26.20
2018-03-06T07:04:47.711Z,28.57
2018-03-06T07:09:52.156Z,27.90
2018-03-06T07:14:55.257Z,27.10
2018-03-06T07:19:58.338Z,26.97
2018-03-06T07:25:01.844Z,28.73
2018-03-06T07:30:05.660Z,28.20
2018-03-06T07:35:08.735Z,27.90
2018-03-06T07:40:13.151Z,27.13
2018-03-06T07:45:16.996Z,27.00
2018-03-06T07:50:20.067Z,27.60
2018-03-06T07:55:24.507Z,26.73
2018-03-06T08:00:27.609Z,27.47
2018-03-06T08:05:31.815Z,26.90
2018-03-06T08:10:34.913Z,25.93
2018-03-06T08:15:37.987Z,28.40
2018-03-06T08:20:41.843Z,27.33
2018-03-06T08:25:44.918Z,28.47
2018-03-06T08:30:48.001Z,27.17
2018-03-06T08:35:51.463Z,28.63
2018-03-06T08:40:55.299Z,26.53
2018-03-06T08:45:58.398Z,27.83
2018-03-06T08:51:02.244Z,30.30
2018-03-06T08:56:05.728Z,27.27
2018-03-06T09:01:09.574Z,28.80
2018-03-06T09:06:14.776Z,29.47
2018-03-06T09:11:17.855Z,27.17
2018-03-06T09:16:21.353Z,29.20
2018-03-06T09:21:25.796Z,27.83
2018-03-06T09:26:28.876Z,29.27
2018-03-06T09:31:32.731Z,28.27
2018-03-06T09:36:36.933Z,29.27
2018-03-06T09:41:41.360Z,28.17
2018-03-06T09:46:44.844Z,28.47
2018-03-06T09:51:48.335Z,26.33
2018-03-06T09:56:51.423Z,28.30
2018-03-06T10:01:54.904Z,27.30
2018-03-06T10:06:58.400Z,28.13
2018-03-06T10:12:02.629Z,28.67
2018-03-06T10:17:07.565Z,27.47
2018-03-06T10:22:10.674Z,27.20
2018-03-06T10:27:14.540Z,27.35
2018-03-06T10:32:18.977Z,28.50
2018-03-06T10:37:23.425Z,27.50
2018-03-06T10:42:28.036Z,26.30
2018-03-06T10:47:32.268Z,27.73
2018-03-06T10:52:36.493Z,27.00
2018-03-06T10:57:39.583Z,27.00
2018-03-06T11:02:42.669Z,26.27
2018-03-06T11:07:45.772Z,27.87
2018-03-06T11:12:50.208Z,26.23
2018-03-06T11:17:53.704Z,26.40
2018-03-06T11:22:56.783Z,25.00
2018-03-06T11:28:01.325Z,25.37
2018-03-06T11:33:04.399Z,26.10
2018-03-06T11:38:07.888Z,25.97
2018-03-06T11:43:11.742Z,26.17
2018-03-06T11:48:15.592Z,25.70
2018-03-06T11:53:19.809Z,26.17
2018-03-06T11:58:22.913Z,25.90
2018-03-06T12:03:27.342Z,25.75
2018-03-06T12:08:30.816Z,27.20
2018-03-06T12:13:35.243Z,25.60
2018-03-06T12:18:39.121Z,25.70
2018-03-06T12:23:42.186Z,26.13
2018-03-06T12:28:45.329Z,25.57
2018-03-06T12:33:48.403Z,24.20
2018-03-06T12:38:52.851Z,24.03
2018-03-06T12:43:56.720Z,23.27
2018-03-06T12:48:59.820Z,23.70
2018-03-06T12:54:02.906Z,20.33
2018-03-06T12:59:06.764Z,19.97
2018-03-06T13:04:11.374Z,19.47
2018-03-06T13:09:15.190Z,20.33
2018-03-06T13:14:18.287Z,18.53
2018-03-06T13:19:21.373Z,20.80
2018-03-06T13:24:26.616Z,19.87
2018-03-06T13:29:31.061Z,20.10
2018-03-06T13:34:35.512Z,18.73
2018-03-06T13:39:39.383Z,18.47
2018-03-06T13:44:42.467Z,16.63
2018-03-06T13:49:45.577Z,18.23
2018-03-06T13:54:50.207Z,18.50
2018-03-06T13:59:53.360Z,16.80
2018-03-06T14:04:58.245Z,17.23
2018-03-06T14:10:01.731Z,16.23
2018-03-06T14:15:04.835Z,18.13
2018-03-06T14:20:07.918Z,17.57
2018-03-06T14:25:12.140Z,17.87
2018-03-06T14:30:16.395Z,15.70
2018-03-06T14:35:19.494Z,17.53
2018-03-06T14:40:23.715Z,17.40
2018-03-06T14:45:28.139Z,16.60
2018-03-06T14:50:31.652Z,17.20
2018-03-06T14:55:35.912Z,17.80
2018-03-06T15:00:40.364Z,17.23
2018-03-06T15:05:43.436Z,17.47
2018-03-06T15:10:47.889Z,17.20
2018-03-06T15:15:51.742Z,16.17
2018-03-06T15:20:56.533Z,16.83
2018-03-06T15:26:00.768Z,17.33
2018-03-06T15:31:03.898Z,15.23
2018-03-06T15:36:06.980Z,17.43
2018-03-06T15:41:10.836Z,15.23
2018-03-06T15:46:15.292Z,16.27
2018-03-06T15:51:19.740Z,14.77
2018-03-06T15:56:22.824Z,16.07
2018-03-06T16:01:27.396Z,18.13
2018-03-06T16:06:31.256Z,17.30
2018-03-06T16:11:35.273Z,17.00
2018-03-06T16:16:39.746Z,17.70
2018-03-06T16:21:44.952Z,16.83
2018-03-06T16:26:48.045Z,18.10
2018-03-06T16:31:53.879Z,17.43
2018-03-06T16:36:57.027Z,19.03
2018-03-06T16:42:01.466Z,17.77
2018-03-06T16:47:05.918Z,17.17
2018-03-06T16:52:10.382Z,16.80
2018-03-06T16:57:14.827Z,15.90
2018-03-06T17:02:19.429Z,16.75
2018-03-06T17:07:23.309Z,15.40
2018-03-06T17:12:27.759Z,19.27
2018-03-06T17:17:32.228Z,19.07
2018-03-06T17:22:36.730Z,19.30
2018-03-06T17:27:41.278Z,17.70
2018-03-06T17:32:46.053Z,17.20
2018-03-06T17:37:50.665Z,14.33
2018-03-06T17:42:53.769Z,14.50
2018-03-06T17:47:59.634Z,13.80
2018-03-06T17:53:03.880Z,15.37
2018-03-06T17:58:08.337Z,15.10
2018-03-06T18:03:12.793Z,15.10
2018-03-06T18:08:17.231Z,13.27
2018-03-06T18:13:20.348Z,14.60
2018-03-06T18:18:23.481Z,14.47
2018-03-06T18:23:27.334Z,12.73
2018-03-06T18:28:30.449Z,14.50
2018-03-06T18:33:35.044Z,13.23
2018-03-06T18:38:39.666Z,15.50
2018-03-06T18:43:43.548Z,14.80
2018-03-06T18:48:48.007Z,13.60
2018-03-06T18:53:52.608Z,14.83
2018-03-06T18:58:56.756Z,15.63
2018-03-06T19:04:19.847Z,14.67
2018-03-06T19:09:24.311Z,16.10
2018-03-06T19:14:30.892Z,16.10
2018-03-06T19:19:35.496Z,14.98
2018-03-06T19:24:39.188Z,19.70
2018-03-06T19:29:42.706Z,13.43
2018-03-06T19:34:46.192Z,11.70
2018-03-06T19:39:50.626Z,13.70
2018-03-06T19:44:53.724Z,12.40
2018-03-06T19:49:57.604Z,14.00
2018-03-06T19:55:02.063Z,13.57
2018-03-06T20:00:06.509Z,14.23
2018-03-06T20:05:11.723Z,13.83
2018-03-06T20:10:15.985Z,12.53
2018-03-06T20:15:20.708Z,12.67
2018-03-06T20:20:25.203Z,12.80
2018-03-06T20:25:35.173Z,12.90
2018-03-06T20:30:43.851Z,12.63
2018-03-06T20:35:46.952Z,13.20
2018-03-06T20:40:51.386Z,14.00
2018-03-06T20:46:00.853Z,12.77
2018-03-06T20:51:03.951Z,11.90
2018-03-06T20:56:08.391Z,13.07
2018-03-06T21:01:12.828Z,13.47
2018-03-06T21:06:16.034Z,13.43
2018-03-06T21:11:19.897Z,14.63
2018-03-06T21:16:22.993Z,15.67
2018-03-06T21:21:26.085Z,15.37
2018-03-06T21:26:30.552Z,17.60
2018-03-06T21:31:35.193Z,18.23
2018-03-06T21:36:38.293Z,21.40
2018-03-06T21:41:41.813Z,22.87
2018-03-06T21:46:45.301Z,23.67
2018-03-06T21:51:48.388Z,24.43
2018-03-06T21:56:52.284Z,24.13
2018-03-06T22:01:56.727Z,19.87
2018-03-06T22:07:01.163Z,22.57
2018-03-06T22:12:06.444Z,25.98
2018-03-06T22:17:10.280Z,24.53
2018-03-06T22:22:14.487Z,22.60
2018-03-06T22:27:18.369Z,26.83
2018-03-06T22:32:21.864Z,26.93
2018-03-06T22:37:26.313Z,27.70
2018-03-06T22:42:30.548Z,28.57
2018-03-06T22:47:34.530Z,26.90
2018-03-06T22:52:38.868Z,27.53
2018-03-06T22:57:43.343Z,25.87
2018-03-06T23:02:46.591Z,27.57
2018-03-06T23:07:49.719Z,25.73
2018-03-06T23:12:53.230Z,27.37
2018-03-06T23:17:56.737Z,27.95
2018-03-06T23:23:01.188Z,29.50
2018-03-06T23:28:04.293Z,30.33
2018-03-06T23:33:08.745Z,29.93
2018-03-06T23:38:12.245Z,30.30
2018-03-06T23:43:16.128Z,28.73
2018-03-06T23:48:20.015Z,30.67
2018-03-06T23:53:24.523Z,30.20
2018-03-06T23:58:27.631Z,30.97
